sensor_id;sensor_type;location;lat;lon;timestamp;pressure;altitude;pressure_sealevel;temperature;humidity
39555;BME280;25231;48.746;9.234;2022-12-18T00:01:37;97739.91;;;-8.76;100.00
39555;BME280;25231;48.746;9.234;2022-12-18T00:04:04;97736.06;;;-8.83;100.00
39555;BME280;25231;48.746;9.234;2022-12-18T00:06:30;97748.00;;;-8.85;100.00
39555;BME280;25231;48.746;9.234;2022-12-18T00:08:57;97747.38;;;-8.89;100.00
39555;BME280;25231;48.746;9.234;2022-12-18T00:11:25;97746.94;;;-8.97;100.00
39555;BME280;25231;48.746;9.234;2022-12-18T00:13:53;97748.91;;;-9.02;100.00
39555;BME280;25231;48.746;9.234;2022-12-18T00:16:21;97743.63;;;-8.97;100.00
39555;BME280;25231;48.746;9.234;2022-12-18T00:18:48;97750.22;;;-8.95;100.00
39555;BME280;25231;48.746;9.234;2022-12-18T00:21:14;97748.03;;;-9.16;100.00
39555;BME280;25231;48.746;9.234;2022-12-18T00:23:42;97756.06;;;-9.08;100.00
39555;BME280;25231;48.746;9.234;2022-12-18T00:26:15;97752.38;;;-9.03;100.00
39555;BME280;25231;48.746;9.234;2022-12-18T00:28:41;97752.78;;;-9.10;100.00
39555;BME280;25231;48.746;9.234;2022-12-18T00:31:10;97743.50;;;-8.96;100.00
39555;BME280;25231;48.746;9.234;2022-12-18T00:33:37;97748.56;;;-8.80;100.00
39555;BME280;25231;48.746;9.234;2022-12-18T00:36:04;97739.91;;;-8.76;100.00
39555;BME280;25231;48.746;9.234;2022-12-18T00:38:30;97750.88;;;-8.91;100.00
39555;BME280;25231;48.746;9.234;2022-12-18T00:40:55;97752.78;;;-8.95;100.00
39555;BME280;25231;48.746;9.234;2022-12-18T00:43:21;97755.81;;;-8.88;100.00
39555;BME280;25231;48.746;9.234;2022-12-18T00:45:46;97762.09;;;-8.95;100.00
39555;BME280;25231;48.746;9.234;2022-12-18T00:48:11;97765.97;;;-9.04;100.00
39555;BME280;25231;48.746;9.234;2022-12-18T00:50:37;97761.59;;;-9.02;100.00
39555;BME280;25231;48.746;9.234;2022-12-18T00:53:03;97758.75;;;-8.96;100.00
39555;BME280;25231;48.746;9.234;2022-12-18T00:55:28;97765.41;;;-8.93;100.00
39555;BME280;25231;48.746;9.234;2022-12-18T00:57:54;97758.50;;;-9.07;100.00
39555;BME280;25231;48.746;9.234;2022-12-18T01:00:20;97761.28;;;-8.96;100.00
39555;BME280;25231;48.746;9.234;2022-12-18T01:02:46;97758.34;;;-9.19;100.00
39555;BME280;25231;48.746;9.234;2022-12-18T01:05:13;97765.41;;;-9.09;100.00
39555;BME280;25231;48.746;9.234;2022-12-18T01:07:38;97762.63;;;-9.04;100.00
39555;BME280;25231;48.746;9.234;2022-12-18T01:10:06;97757.44;;;-9.34;100.00
39555;BME280;25231;48.746;9.234;2022-12-18T01:12:32;97753.69;;;-9.11;100.00
39555;BME280;25231;48.746;9.234;2022-12-18T01:14:57;97750.38;;;-9.29;100.00
39555;BME280;25231;48.746;9.234;2022-12-18T01:17:23;97746.81;;;-9.25;100.00
39555;BME280;25231;48.746;9.234;2022-12-18T01:19:48;97752.28;;;-9.17;100.00
39555;BME280;25231;48.746;9.234;2022-12-18T01:22:13;97752.47;;;-9.20;100.00
39555;BME280;25231;48.746;9.234;2022-12-18T01:24:39;97754.75;;;-9.15;100.00
39555;BME280;25231;48.746;9.234;2022-12-18T01:27:04;97757.03;;;-9.11;100.00
39555;BME280;25231;48.746;9.234;2022-12-18T01:29:30;97768.16;;;-9.13;100.00
39555;BME280;25231;48.746;9.234;2022-12-18T01:31:56;97769.97;;;-9.15;100.00
39555;BME280;25231;48.746;9.234;2022-12-18T01:34:22;97770.38;;;-9.07;100.00
39555;BME280;25231;48.746;9.234;2022-12-18T01:36:48;97761.94;;;-9.08;100.00
39555;BME280;25231;48.746;9.234;2022-12-18T01:39:14;97759.31;;;-9.06;100.00
39555;BME280;25231;48.746;9.234;2022-12-18T01:41:41;97764.06;;;-9.00;100.00
39555;BME280;25231;48.746;9.234;2022-12-18T01:49:47;97768.00;;;-8.95;100.00
39555;BME280;25231;48.746;9.234;2022-12-18T01:52:13;97768.56;;;-8.90;100.00
39555;BME280;25231;48.746;9.234;2022-12-18T01:54:39;97766.19;;;-8.77;100.00
39555;BME280;25231;48.746;9.234;2022-12-18T01:57:05;97773.47;;;-8.55;100.00
39555;BME280;25231;48.746;9.234;2022-12-18T01:59:32;97768.94;;;-8.50;100.00
39555;BME280;25231;48.746;9.234;2022-12-18T02:01:59;97763.56;;;-8.60;100.00
39555;BME280;25231;48.746;9.234;2022-12-18T02:04:25;97760.34;;;-8.63;100.00
39555;BME280;25231;48.746;9.234;2022-12-18T02:07:29;97760.13;;;-8.59;100.00
39555;BME280;25231;48.746;9.234;2022-12-18T02:10:07;97752.06;;;-8.51;100.00
39555;BME280;25231;48.746;9.234;2022-12-18T02:15:38;97758.38;;;-8.43;100.00
39555;BME280;25231;48.746;9.234;2022-12-18T02:18:09;97756.03;;;-8.31;100.00
39555;BME280;25231;48.746;9.234;2022-12-18T02:20:52;97756.94;;;-8.32;100.00
39555;BME280;25231;48.746;9.234;2022-12-18T02:23:54;97770.72;;;-8.36;100.00
39555;BME280;25231;48.746;9.234;2022-12-18T02:26:33;97769.28;;;-8.26;100.00
39555;BME280;25231;48.746;9.234;2022-12-18T02:29:05;97768.28;;;-8.38;100.00
39555;BME280;25231;48.746;9.234;2022-12-18T02:31:38;97763.34;;;-8.41;100.00
39555;BME280;25231;48.746;9.234;2022-12-18T02:34:07;97760.34;;;-8.48;100.00
39555;BME280;25231;48.746;9.234;2022-12-18T02:36:35;97773.44;;;-8.39;100.00
39555;BME280;25231;48.746;9.234;2022-12-18T02:39:02;97778.44;;;-8.38;100.00
39555;BME280;25231;48.746;9.234;2022-12-18T02:41:30;97773.69;;;-8.44;100.00
39555;BME280;25231;48.746;9.234;2022-12-18T02:44:00;97778.03;;;-8.46;100.00
39555;BME280;25231;48.746;9.234;2022-12-18T02:46:36;97777.56;;;-8.53;100.00
39555;BME280;25231;48.746;9.234;2022-12-18T02:52:04;97790.09;;;-8.50;100.00
39555;BME280;25231;48.746;9.234;2022-12-18T02:54:49;97783.44;;;-8.36;100.00
39555;BME280;25231;48.746;9.234;2022-12-18T02:57:42;97797.38;;;-8.44;100.00
39555;BME280;25231;48.746;9.234;2022-12-18T03:00:28;97787.84;;;-8.40;100.00
39555;BME280;25231;48.746;9.234;2022-12-18T03:02:59;97786.25;;;-8.57;100.00
39555;BME280;25231;48.746;9.234;2022-12-18T03:05:45;97782.47;;;-8.50;100.00
39555;BME280;25231;48.746;9.234;2022-12-18T03:08:18;97778.28;;;-8.51;100.00
39555;BME280;25231;48.746;9.234;2022-12-18T03:10:54;97777.94;;;-8.45;100.00
39555;BME280;25231;48.746;9.234;2022-12-18T03:13:28;97774.16;;;-8.37;100.00
39555;BME280;25231;48.746;9.234;2022-12-18T03:15:57;97780.16;;;-8.38;100.00
39555;BME280;25231;48.746;9.234;2022-12-18T03:18:43;97789.47;;;-8.53;100.00
39555;BME280;25231;48.746;9.234;2022-12-18T03:21:11;97781.06;;;-8.39;100.00
39555;BME280;25231;48.746;9.234;2022-12-18T03:23:46;97793.19;;;-8.45;100.00
39555;BME280;25231;48.746;9.234;2022-12-18T03:26:15;97797.31;;;-8.58;100.00
39555;BME280;25231;48.746;9.234;2022-12-18T03:29:03;97798.31;;;-8.60;100.00
39555;BME280;25231;48.746;9.234;2022-12-18T03:31:35;97800.28;;;-8.65;100.00
39555;BME280;25231;48.746;9.234;2022-12-18T03:34:06;97799.53;;;-8.67;100.00
39555;BME280;25231;48.746;9.234;2022-12-18T03:36:34;97802.88;;;-8.51;100.00
39555;BME280;25231;48.746;9.234;2022-12-18T03:39:00;97810.50;;;-8.67;100.00
39555;BME280;25231;48.746;9.234;2022-12-18T03:41:32;97804.94;;;-8.73;100.00
39555;BME280;25231;48.746;9.234;2022-12-18T03:47:23;97797.81;;;-9.14;100.00
39555;BME280;25231;48.746;9.234;2022-12-18T03:50:05;97799.78;;;-9.03;100.00
39555;BME280;25231;48.746;9.234;2022-12-18T03:52:41;97796.50;;;-9.05;100.00
39555;BME280;25231;48.746;9.234;2022-12-18T03:55:11;97807.56;;;-9.06;100.00
39555;BME280;25231;48.746;9.234;2022-12-18T03:57:37;97801.34;;;-9.01;100.00
39555;BME280;25231;48.746;9.234;2022-12-18T04:00:09;97803.69;;;-9.13;100.00
39555;BME280;25231;48.746;9.234;2022-12-18T04:02:37;97806.78;;;-9.24;100.00
39555;BME280;25231;48.746;9.234;2022-12-18T04:05:07;97799.75;;;-9.19;100.00
39555;BME280;25231;48.746;9.234;2022-12-18T04:07:34;97801.75;;;-9.41;100.00
39555;BME280;25231;48.746;9.234;2022-12-18T04:10:02;97795.66;;;-9.37;100.00
39555;BME280;25231;48.746;9.234;2022-12-18T04:12:29;97791.28;;;-9.51;100.00
39555;BME280;25231;48.746;9.234;2022-12-18T04:14:54;97794.72;;;-9.52;100.00
39555;BME280;25231;48.746;9.234;2022-12-18T04:17:21;97789.88;;;-9.56;100.00
39555;BME280;25231;48.746;9.234;2022-12-18T04:19:47;97790.16;;;-9.45;100.00
39555;BME280;25231;48.746;9.234;2022-12-18T04:22:12;97794.25;;;-9.43;100.00
39555;BME280;25231;48.746;9.234;2022-12-18T04:24:38;97801.19;;;-9.46;100.00
39555;BME280;25231;48.746;9.234;2022-12-18T04:27:03;97795.94;;;-9.59;100.00
39555;BME280;25231;48.746;9.234;2022-12-18T04:29:29;97787.88;;;-9.67;100.00
39555;BME280;25231;48.746;9.234;2022-12-18T04:31:54;97803.44;;;-9.57;100.00
39555;BME280;25231;48.746;9.234;2022-12-18T04:34:20;97798.69;;;-9.63;100.00
39555;BME280;25231;48.746;9.234;2022-12-18T04:36:46;97806.47;;;-9.67;100.00
39555;BME280;25231;48.746;9.234;2022-12-18T04:39:11;97811.53;;;-9.67;100.00
39555;BME280;25231;48.746;9.234;2022-12-18T04:41:37;97818.09;;;-9.80;100.00
39555;BME280;25231;48.746;9.234;2022-12-18T04:44:02;97817.13;;;-9.77;100.00
39555;BME280;25231;48.746;9.234;2022-12-18T04:46:28;97816.00;;;-9.72;100.00
39555;BME280;25231;48.746;9.234;2022-12-18T04:48:53;97818.25;;;-9.83;100.00
39555;BME280;25231;48.746;9.234;2022-12-18T04:51:19;97807.38;;;-9.85;100.00
39555;BME280;25231;48.746;9.234;2022-12-18T04:53:44;97805.00;;;-9.88;100.00
39555;BME280;25231;48.746;9.234;2022-12-18T04:56:12;97800.69;;;-10.03;100.00
39555;BME280;25231;48.746;9.234;2022-12-18T04:58:39;97793.50;;;-9.95;100.00
39555;BME280;25231;48.746;9.234;2022-12-18T05:01:05;97783.75;;;-10.02;100.00
39555;BME280;25231;48.746;9.234;2022-12-18T05:03:32;97777.72;;;-10.00;100.00
39555;BME280;25231;48.746;9.234;2022-12-18T05:05:58;97774.06;;;-10.12;100.00
39555;BME280;25231;48.746;9.234;2022-12-18T05:08:24;97786.19;;;-10.17;100.00
39555;BME280;25231;48.746;9.234;2022-12-18T05:10:49;97784.75;;;-10.22;100.00
39555;BME280;25231;48.746;9.234;2022-12-18T05:13:15;97793.50;;;-10.12;100.00
39555;BME280;25231;48.746;9.234;2022-12-18T05:15:40;97786.25;;;-10.18;100.00
39555;BME280;25231;48.746;9.234;2022-12-18T05:18:07;97793.41;;;-10.26;100.00
39555;BME280;25231;48.746;9.234;2022-12-18T05:20:33;97792.06;;;-10.16;100.00
39555;BME280;25231;48.746;9.234;2022-12-18T05:22:58;97785.91;;;-10.12;100.00
39555;BME280;25231;48.746;9.234;2022-12-18T05:25:24;97793.25;;;-10.23;100.00
39555;BME280;25231;48.746;9.234;2022-12-18T05:27:49;97800.53;;;-10.34;100.00
39555;BME280;25231;48.746;9.234;2022-12-18T05:30:15;97808.72;;;-10.12;100.00
39555;BME280;25231;48.746;9.234;2022-12-18T05:32:41;97820.09;;;-10.36;100.00
39555;BME280;25231;48.746;9.234;2022-12-18T05:35:08;97818.44;;;-10.37;100.00
39555;BME280;25231;48.746;9.234;2022-12-18T05:37:34;97809.72;;;-10.68;100.00
39555;BME280;25231;48.746;9.234;2022-12-18T05:39:59;97814.09;;;-10.35;100.00
39555;BME280;25231;48.746;9.234;2022-12-18T05:42:25;97808.38;;;-10.22;100.00
39555;BME280;25231;48.746;9.234;2022-12-18T05:44:50;97805.97;;;-10.25;100.00
39555;BME280;25231;48.746;9.234;2022-12-18T05:47:16;97821.66;;;-10.53;100.00
39555;BME280;25231;48.746;9.234;2022-12-18T05:49:41;97814.47;;;-10.43;100.00
39555;BME280;25231;48.746;9.234;2022-12-18T05:52:07;97813.44;;;-10.39;100.00
39555;BME280;25231;48.746;9.234;2022-12-18T05:54:32;97810.97;;;-10.40;100.00
39555;BME280;25231;48.746;9.234;2022-12-18T05:56:58;97809.94;;;-10.36;100.00
39555;BME280;25231;48.746;9.234;2022-12-18T05:59:23;97801.06;;;-10.28;100.00
39555;BME280;25231;48.746;9.234;2022-12-18T06:01:49;97805.31;;;-10.45;100.00
39555;BME280;25231;48.746;9.234;2022-12-18T06:04:14;97791.47;;;-10.38;100.00
39555;BME280;25231;48.746;9.234;2022-12-18T06:06:40;97792.81;;;-10.31;100.00
39555;BME280;25231;48.746;9.234;2022-12-18T06:09:05;97803.53;;;-10.43;100.00
39555;BME280;25231;48.746;9.234;2022-12-18T06:11:36;97812.47;;;-10.36;100.00
39555;BME280;25231;48.746;9.234;2022-12-18T06:14:03;97804.66;;;-10.32;100.00
39555;BME280;25231;48.746;9.234;2022-12-18T06:16:30;97814.78;;;-10.15;100.00
39555;BME280;25231;48.746;9.234;2022-12-18T06:18:57;97818.22;;;-10.33;100.00
39555;BME280;25231;48.746;9.234;2022-12-18T06:21:22;97816.34;;;-10.29;100.00
39555;BME280;25231;48.746;9.234;2022-12-18T06:23:48;97815.66;;;-10.16;100.00
39555;BME280;25231;48.746;9.234;2022-12-18T06:26:14;97806.97;;;-10.27;100.00
39555;BME280;25231;48.746;9.234;2022-12-18T06:28:39;97804.38;;;-10.26;100.00
39555;BME280;25231;48.746;9.234;2022-12-18T06:31:06;97820.88;;;-10.36;100.00
39555;BME280;25231;48.746;9.234;2022-12-18T06:33:32;97823.69;;;-10.42;100.00
39555;BME280;25231;48.746;9.234;2022-12-18T06:38:27;97830.88;;;-10.33;100.00
39555;BME280;25231;48.746;9.234;2022-12-18T06:40:52;97832.53;;;-10.32;100.00
39555;BME280;25231;48.746;9.234;2022-12-18T06:43:18;97837.31;;;-10.26;100.00
39555;BME280;25231;48.746;9.234;2022-12-18T06:45:43;97831.53;;;-10.12;100.00
39555;BME280;25231;48.746;9.234;2022-12-18T06:48:09;97822.16;;;-10.10;100.00
39555;BME280;25231;48.746;9.234;2022-12-18T06:50:34;97827.66;;;-10.02;100.00
39555;BME280;25231;48.746;9.234;2022-12-18T06:53:00;97819.56;;;-10.08;100.00
39555;BME280;25231;48.746;9.234;2022-12-18T06:55:25;97822.88;;;-10.08;100.00
39555;BME280;25231;48.746;9.234;2022-12-18T06:57:51;97823.63;;;-10.06;100.00
39555;BME280;25231;48.746;9.234;2022-12-18T07:00:17;97819.38;;;-9.71;100.00
39555;BME280;25231;48.746;9.234;2022-12-18T07:02:42;97829.13;;;-9.63;100.00
39555;BME280;25231;48.746;9.234;2022-12-18T07:05:08;97836.66;;;-9.62;100.00
39555;BME280;25231;48.746;9.234;2022-12-18T07:07:34;97841.88;;;-9.48;100.00
39555;BME280;25231;48.746;9.234;2022-12-18T07:10:01;97835.59;;;-9.58;100.00
39555;BME280;25231;48.746;9.234;2022-12-18T07:12:27;97840.78;;;-9.59;100.00
39555;BME280;25231;48.746;9.234;2022-12-18T07:14:55;97849.88;;;-9.73;100.00
39555;BME280;25231;48.746;9.234;2022-12-18T07:17:20;97860.25;;;-9.60;100.00
39555;BME280;25231;48.746;9.234;2022-12-18T07:19:46;97853.34;;;-9.58;100.00
39555;BME280;25231;48.746;9.234;2022-12-18T07:22:11;97847.59;;;-9.44;100.00
39555;BME280;25231;48.746;9.234;2022-12-18T07:24:37;97858.28;;;-9.38;100.00
39555;BME280;25231;48.746;9.234;2022-12-18T07:27:02;97857.47;;;-9.22;100.00
39555;BME280;25231;48.746;9.234;2022-12-18T07:29:28;97857.09;;;-9.15;100.00
39555;BME280;25231;48.746;9.234;2022-12-18T07:31:54;97865.88;;;-9.05;100.00
39555;BME280;25231;48.746;9.234;2022-12-18T07:34:19;97862.28;;;-9.01;100.00
39555;BME280;25231;48.746;9.234;2022-12-18T07:36:44;97864.25;;;-8.90;100.00
39555;BME280;25231;48.746;9.234;2022-12-18T07:39:11;97868.13;;;-8.83;100.00
39555;BME280;25231;48.746;9.234;2022-12-18T07:41:36;97861.91;;;-8.77;100.00
39555;BME280;25231;48.746;9.234;2022-12-18T07:44:02;97874.28;;;-8.56;100.00
39555;BME280;25231;48.746;9.234;2022-12-18T07:46:27;97865.00;;;-8.72;100.00
39555;BME280;25231;48.746;9.234;2022-12-18T07:48:53;97870.97;;;-8.73;100.00
39555;BME280;25231;48.746;9.234;2022-12-18T07:51:18;97879.53;;;-8.59;100.00
39555;BME280;25231;48.746;9.234;2022-12-18T07:53:44;97871.59;;;-8.53;100.00
39555;BME280;25231;48.746;9.234;2022-12-18T07:56:11;97871.34;;;-8.48;100.00
39555;BME280;25231;48.746;9.234;2022-12-18T07:58:37;97876.56;;;-8.35;100.00
39555;BME280;25231;48.746;9.234;2022-12-18T08:01:10;97880.22;;;-8.25;100.00
39555;BME280;25231;48.746;9.234;2022-12-18T08:03:37;97875.28;;;-8.28;100.00
39555;BME280;25231;48.746;9.234;2022-12-18T08:06:04;97869.47;;;-8.15;100.00
39555;BME280;25231;48.746;9.234;2022-12-18T08:08:32;97868.88;;;-8.04;100.00
39555;BME280;25231;48.746;9.234;2022-12-18T08:10:58;97878.53;;;-7.95;100.00
39555;BME280;25231;48.746;9.234;2022-12-18T08:13:24;97886.63;;;-7.88;100.00
39555;BME280;25231;48.746;9.234;2022-12-18T08:16:04;97885.34;;;-7.66;100.00
39555;BME280;25231;48.746;9.234;2022-12-18T08:18:32;97880.25;;;-7.66;100.00
39555;BME280;25231;48.746;9.234;2022-12-18T08:20:57;97878.84;;;-8.01;100.00
39555;BME280;25231;48.746;9.234;2022-12-18T08:23:23;97875.44;;;-7.70;100.00
39555;BME280;25231;48.746;9.234;2022-12-18T08:25:48;97876.34;;;-7.71;100.00
39555;BME280;25231;48.746;9.234;2022-12-18T08:28:15;97879.81;;;-7.58;100.00
39555;BME280;25231;48.746;9.234;2022-12-18T08:30:43;97874.25;;;-7.65;100.00
39555;BME280;25231;48.746;9.234;2022-12-18T08:33:08;97869.72;;;-7.60;100.00
39555;BME280;25231;48.746;9.234;2022-12-18T08:35:37;97871.50;;;-7.32;100.00
39555;BME280;25231;48.746;9.234;2022-12-18T08:38:03;97872.78;;;-7.25;100.00
39555;BME280;25231;48.746;9.234;2022-12-18T08:40:29;97881.00;;;-7.49;100.00
39555;BME280;25231;48.746;9.234;2022-12-18T08:42:54;97880.34;;;-7.67;100.00
39555;BME280;25231;48.746;9.234;2022-12-18T08:45:38;97879.09;;;-7.46;100.00
39555;BME280;25231;48.746;9.234;2022-12-18T08:48:03;97872.50;;;-7.20;100.00
39555;BME280;25231;48.746;9.234;2022-12-18T08:50:29;97882.69;;;-7.20;100.00
39555;BME280;25231;48.746;9.234;2022-12-18T08:52:54;97887.88;;;-7.36;100.00
39555;BME280;25231;48.746;9.234;2022-12-18T08:55:20;97886.78;;;-7.18;100.00
39555;BME280;25231;48.746;9.234;2022-12-18T08:57:48;97880.41;;;-7.10;100.00
39555;BME280;25231;48.746;9.234;2022-12-18T09:00:14;97882.72;;;-6.92;100.00
39555;BME280;25231;48.746;9.234;2022-12-18T09:02:40;97877.78;;;-6.81;100.00
39555;BME280;25231;48.746;9.234;2022-12-18T09:05:06;97869.13;;;-6.78;100.00
39555;BME280;25231;48.746;9.234;2022-12-18T09:07:31;97869.94;;;-6.63;100.00
39555;BME280;25231;48.746;9.234;2022-12-18T09:09:57;97862.81;;;-6.58;100.00
39555;BME280;25231;48.746;9.234;2022-12-18T09:12:22;97863.81;;;-6.47;100.00
39555;BME280;25231;48.746;9.234;2022-12-18T09:14:47;97865.16;;;-6.41;100.00
39555;BME280;25231;48.746;9.234;2022-12-18T09:17:13;97859.25;;;-6.56;100.00
39555;BME280;25231;48.746;9.234;2022-12-18T09:19:38;97867.06;;;-6.45;100.00
39555;BME280;25231;48.746;9.234;2022-12-18T09:22:04;97868.38;;;-6.25;100.00
39555;BME280;25231;48.746;9.234;2022-12-18T09:24:29;97863.03;;;-6.35;100.00
39555;BME280;25231;48.746;9.234;2022-12-18T09:26:54;97863.69;;;-6.18;100.00
39555;BME280;25231;48.746;9.234;2022-12-18T09:29:20;97860.50;;;-6.08;100.00
39555;BME280;25231;48.746;9.234;2022-12-18T09:31:46;97854.19;;;-6.02;100.00
39555;BME280;25231;48.746;9.234;2022-12-18T09:34:12;97846.75;;;-5.93;100.00
39555;BME280;25231;48.746;9.234;2022-12-18T09:36:37;97853.94;;;-6.12;100.00
39555;BME280;25231;48.746;9.234;2022-12-18T09:39:04;97847.44;;;-6.03;100.00
39555;BME280;25231;48.746;9.234;2022-12-18T09:41:51;97850.53;;;-5.98;100.00
39555;BME280;25231;48.746;9.234;2022-12-18T09:44:35;97846.94;;;-5.96;100.00
39555;BME280;25231;48.746;9.234;2022-12-18T09:47:25;97859.47;;;-6.05;100.00
39555;BME280;25231;48.746;9.234;2022-12-18T09:49:56;97860.22;;;-5.78;100.00
39555;BME280;25231;48.746;9.234;2022-12-18T09:52:45;97862.94;;;-6.06;100.00
39555;BME280;25231;48.746;9.234;2022-12-18T09:55:33;97833.19;;;-5.68;100.00
39555;BME280;25231;48.746;9.234;2022-12-18T09:58:28;97831.53;;;-5.81;100.00
39555;BME280;25231;48.746;9.234;2022-12-18T10:00:53;97834.28;;;-5.84;100.00
39555;BME280;25231;48.746;9.234;2022-12-18T10:03:19;97844.47;;;-6.10;100.00
39555;BME280;25231;48.746;9.234;2022-12-18T10:05:54;97839.66;;;-6.14;100.00
39555;BME280;25231;48.746;9.234;2022-12-18T10:20:42;97842.88;;;-5.98;100.00
39555;BME280;25231;48.746;9.234;2022-12-18T10:28:26;97854.09;;;-5.88;100.00
39555;BME280;25231;48.746;9.234;2022-12-18T10:30:54;97857.13;;;-5.96;100.00
39555;BME280;25231;48.746;9.234;2022-12-18T10:33:22;97852.16;;;-5.97;100.00
39555;BME280;25231;48.746;9.234;2022-12-18T10:35:50;97844.91;;;-5.78;100.00
39555;BME280;25231;48.746;9.234;2022-12-18T10:40:57;97842.75;;;-5.84;100.00
39555;BME280;25231;48.746;9.234;2022-12-18T10:48:34;97858.59;;;-5.79;100.00
39555;BME280;25231;48.746;9.234;2022-12-18T10:51:02;97852.91;;;-5.57;100.00
39555;BME280;25231;48.746;9.234;2022-12-18T10:53:29;97855.06;;;-5.51;100.00
39555;BME280;25231;48.746;9.234;2022-12-18T10:55:58;97854.25;;;-5.26;100.00
39555;BME280;25231;48.746;9.234;2022-12-18T10:58:35;97855.09;;;-5.26;100.00
39555;BME280;25231;48.746;9.234;2022-12-18T11:03:35;97854.34;;;-5.15;100.00
39555;BME280;25231;48.746;9.234;2022-12-18T11:06:07;97858.84;;;-4.93;100.00
39555;BME280;25231;48.746;9.234;2022-12-18T11:08:33;97858.84;;;-4.81;100.00
39555;BME280;25231;48.746;9.234;2022-12-18T11:10:59;97852.91;;;-4.94;100.00
39555;BME280;25231;48.746;9.234;2022-12-18T11:13:27;97856.19;;;-5.05;100.00
39555;BME280;25231;48.746;9.234;2022-12-18T11:15:53;97832.91;;;-4.64;100.00
39555;BME280;25231;48.746;9.234;2022-12-18T11:18:29;97831.91;;;-4.37;100.00
39555;BME280;25231;48.746;9.234;2022-12-18T11:20:58;97829.91;;;-4.21;100.00
39555;BME280;25231;48.746;9.234;2022-12-18T11:23:25;97828.47;;;-4.01;100.00
39555;BME280;25231;48.746;9.234;2022-12-18T11:25:57;97819.16;;;-4.02;100.00
39555;BME280;25231;48.746;9.234;2022-12-18T11:28:29;97819.22;;;-4.15;100.00
39555;BME280;25231;48.746;9.234;2022-12-18T11:31:16;97817.59;;;-4.16;100.00
39555;BME280;25231;48.746;9.234;2022-12-18T11:33:56;97816.00;;;-4.06;100.00
39555;BME280;25231;48.746;9.234;2022-12-18T11:36:26;97814.09;;;-4.15;100.00
39555;BME280;25231;48.746;9.234;2022-12-18T11:38:55;97814.59;;;-4.10;100.00
39555;BME280;25231;48.746;9.234;2022-12-18T11:43:54;97811.97;;;-3.97;100.00
39555;BME280;25231;48.746;9.234;2022-12-18T11:46:36;97807.09;;;-3.89;100.00
39555;BME280;25231;48.746;9.234;2022-12-18T11:49:22;97813.34;;;-4.04;100.00
39555;BME280;25231;48.746;9.234;2022-12-18T11:54:36;97807.63;;;-3.62;100.00
39555;BME280;25231;48.746;9.234;2022-12-18T12:00:04;97806.19;;;-3.77;100.00
39555;BME280;25231;48.746;9.234;2022-12-18T12:03:06;97805.59;;;-3.46;100.00
39555;BME280;25231;48.746;9.234;2022-12-18T12:14:08;97788.44;;;-3.56;100.00
39555;BME280;25231;48.746;9.234;2022-12-18T12:16:52;97781.09;;;-3.61;100.00
39555;BME280;25231;48.746;9.234;2022-12-18T12:22:05;97782.00;;;-3.62;100.00
39555;BME280;25231;48.746;9.234;2022-12-18T12:27:30;97779.34;;;-3.60;100.00
39555;BME280;25231;48.746;9.234;2022-12-18T12:30:20;97779.47;;;-3.28;100.00
39555;BME280;25231;48.746;9.234;2022-12-18T12:36:04;97777.41;;;-3.34;100.00
39555;BME280;25231;48.746;9.234;2022-12-18T12:38:40;97780.56;;;-3.31;100.00
39555;BME280;25231;48.746;9.234;2022-12-18T12:41:09;97778.44;;;-3.04;100.00
39555;BME280;25231;48.746;9.234;2022-12-18T12:44:04;97782.03;;;-2.95;100.00
39555;BME280;25231;48.746;9.234;2022-12-18T12:46:35;97780.19;;;-2.93;100.00
39555;BME280;25231;48.746;9.234;2022-12-18T12:49:03;97770.63;;;-2.91;100.00
39555;BME280;25231;48.746;9.234;2022-12-18T12:51:40;97778.34;;;-3.02;100.00
39555;BME280;25231;48.746;9.234;2022-12-18T12:54:14;97780.50;;;-2.75;100.00
39555;BME280;25231;48.746;9.234;2022-12-18T12:57:06;97774.69;;;-2.88;100.00
39555;BME280;25231;48.746;9.234;2022-12-18T13:00:11;97786.59;;;-2.99;100.00
39555;BME280;25231;48.746;9.234;2022-12-18T13:05:19;97800.81;;;-2.95;100.00
39555;BME280;25231;48.746;9.234;2022-12-18T13:08:09;97799.88;;;-2.94;100.00
39555;BME280;25231;48.746;9.234;2022-12-18T13:10:42;97789.47;;;-2.59;100.00
39555;BME280;25231;48.746;9.234;2022-12-18T13:13:08;97787.59;;;-2.57;100.00
39555;BME280;25231;48.746;9.234;2022-12-18T13:34:20;97794.09;;;-2.41;100.00
39555;BME280;25231;48.746;9.234;2022-12-18T13:36:46;97777.13;;;-2.33;100.00
39555;BME280;25231;48.746;9.234;2022-12-18T13:42:34;97773.59;;;-2.21;100.00
39555;BME280;25231;48.746;9.234;2022-12-18T13:44:59;97777.09;;;-2.22;100.00
39555;BME280;25231;48.746;9.234;2022-12-18T13:47:31;97768.56;;;-2.22;100.00
39555;BME280;25231;48.746;9.234;2022-12-18T13:49:58;97765.41;;;-2.15;100.00
39555;BME280;25231;48.746;9.234;2022-12-18T13:54:52;97765.75;;;-2.40;100.00
39555;BME280;25231;48.746;9.234;2022-12-18T13:57:38;97772.00;;;-2.33;100.00
39555;BME280;25231;48.746;9.234;2022-12-18T14:00:23;97774.38;;;-2.41;100.00
39555;BME280;25231;48.746;9.234;2022-12-18T14:02:50;97782.22;;;-2.54;100.00
39555;BME280;25231;48.746;9.234;2022-12-18T14:05:29;97775.38;;;-2.64;100.00
39555;BME280;25231;48.746;9.234;2022-12-18T14:08:11;97773.97;;;-2.68;100.00
39555;BME280;25231;48.746;9.234;2022-12-18T14:10:46;97780.72;;;-2.67;100.00
39555;BME280;25231;48.746;9.234;2022-12-18T14:13:19;97782.00;;;-2.73;100.00
39555;BME280;25231;48.746;9.234;2022-12-18T14:15:47;97781.81;;;-2.81;100.00
39555;BME280;25231;48.746;9.234;2022-12-18T14:18:27;97780.28;;;-2.95;100.00
39555;BME280;25231;48.746;9.234;2022-12-18T14:20:57;97784.03;;;-2.99;100.00
39555;BME280;25231;48.746;9.234;2022-12-18T14:23:41;97778.34;;;-2.91;100.00
39555;BME280;25231;48.746;9.234;2022-12-18T14:26:27;97779.25;;;-3.03;100.00
39555;BME280;25231;48.746;9.234;2022-12-18T14:28:58;97790.00;;;-3.09;100.00
39555;BME280;25231;48.746;9.234;2022-12-18T14:31:28;97787.97;;;-3.39;100.00
39555;BME280;25231;48.746;9.234;2022-12-18T14:33:53;97789.88;;;-3.41;100.00
39555;BME280;25231;48.746;9.234;2022-12-18T14:36:27;97794.19;;;-3.08;100.00
39555;BME280;25231;48.746;9.234;2022-12-18T14:38:54;97792.44;;;-3.19;100.00